Skip Navigation Links Skip Navigation Links

Current Weather

Nut Tree, Vacaville, Calif.

For information only: do not use for flight planning or navigation.
Latest weather
Observation time Thursday, December 3, 2020 11:53 PM PST
Local time Friday, December 4, 2020 12:17 AM PST
Flight conditions Visual Meteorological Conditions
Winds
Wind speed calm
Visibility 8 mi.
Sky condition
Ceiling unlimited
Sky clear
Temperature 41°F
Dewpoint 34°F
Altimeter 30.33 in.Hg
Derived measurements
Relative humidity 76%
Wind chill 41°F
Density altitude -1464 ft.
Sea-level pressure 30.33 in.Hg
Climate data
Temperature minimum, last 24 hours 35°F
Temperature maximum, last 24 hours 66°F
Remarks
Fully automated report.
Automated weather observing station with precipitation discriminator.
METAR KVCB 040753Z AUTO 00000KT 8SM CLR 05/01 A3033 RMK AO2 SLP271 T00500011 401890017

Settings

Location code

InnerDrive.Weather 4.0.6770.0 Release CLR 4.0.30319.42000
Copyright ©2018 Inner Drive Technology. All rights reserved. Portions Copyright ©1986-2018 David Braverman.

Find weather

Site navigation


Skip Navigation Links

Place info

Page info

PayPal - The safer, easier way to pay online!

Return home.

Copyright ©2020 Inner Drive Technology. Purveyors of fine, hand-crafted computer software. Page printed 2020-12-04T08:17:29 UTC.